Utopia, Texas
Current Conditions -  °F | °C
As of 9:51 AM on Friday 28 Nov 2014 (Local Time) from KHDO Reporting Station
Haze Haze  
Wind Chill: 54°   Ceiling: 400
Heat Index: 54°   Visibility: 5mi
Dew Point: 51°   Wind: 5mph
Humidity: 90%   Direction: 190°S
Pressure: 30.34"   Gusts: NA
Location:  29.62°N, 99.53°W
Report Text: KHDO 281551Z AUTO 19004KT 5SM BR OVC004 12/11 A3034 RMK AO2 SLP270 T01220106
Loading
Personal Weather Stations






























Interactive Weather Map New forecast layout! Learn more

10-Day Weather Forecast

Advertisements
Track Severe Weather on mobile